Soaring Guidance
Issued by NWS Reno, NV

Home | Current Version | Previous Version | Text Only | Print | Product List | Glossary On
Versions: 1 2 3 4 5 6 7
000
UXUS97 KREV 261300
SRGREV

SOARING FORECAST
NATIONAL WEATHER SERVICE - RENO NV
700 AM PDT MON JUL 26 2021

THIS SOARING FORECAST IS FOR THE EASTERN SIERRA AND WESTERN NEVADA
WITH SPECIFIC INDICES FOR THE GREATER RENO AREA.

THIS FORECAST IS PREPARED DAILY BY 700 AM AND IS NOT UPDATED.

FOR CURRENT FLIGHT CONDITIONS...FORECASTS...AND ADVISORIES...ACCESS
YOUR LOCAL BRIEFING OUTLET OR FLIGHT SERVICE STATION.

*******************************************************************
FORECASTED LOCAL INDICES FOR RENO:        TODAY     YESTERDAY
FORECASTED MAX TEMP AT RENO (DEG F).....    100         100
FORECASTED TRIGGER TEMPERATURE (DEG F)..     87          87
   EXCEEDED YESTERDAY BY 1155 AM PDT
FORECASTED MAXIMUM ALTITUDE (FT MSL)....  18000       17300
FORECASTED SOARING INDEX (FPM)..........   1116        1149
FORECASTED K-INDEX.........VALID 18Z....     27          21
FORECASTED K-INDEX.........VALID 00Z....     30          24
FORECASTED LIFTED INDEX....VALID 18Z....      0           2
FORECASTED LIFTED INDEX....VALID 00Z....     -1          -1

AFTERNOON WINDS ALOFT FORECAST
MSL (FT) WIND/TEMP
9000  3408/+21
10000 9905/+18
12000 9900/+12
14000 9902/+05
16000 9905/-01
18000 1312/-07
24000 1414/-17
30000 1622/-31
34000 1720/-42
39000 1820/-54

SLIDE MOUNTAIN DATA:
     DATE       TIME     TEMP  DEWPT   RH         WIND (MPH)
                        (F)   (F)           | DIR  SPEED GUST
2021-07-26    04:20      64    42     33    | 000    0    0
2021-07-26    04:00      64    42     33    | 000    0    0
2021-07-26    03:50      64    42     32    | 094    0    1
2021-07-26    03:30      64    42     32    | 000    0    0

SIERRA CREST 8700 FT DATA:
   DATE     TIME  TEMP  RH         WIND
                            DIR   SPEED   GUST
2021-07-26 0515   62   42   163      0      0
2021-07-26 0500   62   44   163      0      0
2021-07-26 0445   63   41   163      0      0
2021-07-26 0430   61   45   162      0      0

RENO TAF FORECAST:
KRNO 261120Z 2612/2712 VRB03KT 3SM FU BKN030 BKN150
     FM262000 18011KT 5SM FU HZ BKN050 BKN100
     FM270100 29012G22KT 6SM FU HZ VCSH BKN060
     FM270700 26008KT 6SM FU HZ BKN050

MINDEN TAF FORECAST:
KMEV 261120Z 2612/2712 12004KT 6SM FU SCT025
     FM262000 20010KT 2SM FU HZ VCSH SCT030 BKN080
     FM270000 28012G22KT 6SM FU HZ VCSH BKN050
     FM270400 12005KT 6SM FU HZ BKN030

OUTLOOK FOR THE RENO-CARSON CITY-MINDEN AREA:
.TUESDAY...MOSTLY CLOUDY WITH A SLIGHT CHANCE OF SHOWERS AND
THUNDERSTORMS. HAZE AND AREAS OF SMOKE. HIGHS 86 TO 91. WEST
WINDS 10 TO 15 MPH.

SUNRISE AND SUNSET
JULY 26 2021..........SUNRISE   554 AM PDT   SUNSET   817 PM PDT
JULY 27 2021..........SUNRISE   555 AM PDT   SUNSET   816 PM PDT


USA.gov is the U.S. government's official web portal to all federal, state and local government web resources and services.